createdAt,value
2023-05-09T00:00:50.808Z,13.40
2023-05-09T00:03:21.203Z,13.30
2023-05-09T00:05:51.274Z,13.40
2023-05-09T00:08:19.466Z,13.30
2023-05-09T00:10:47.957Z,13.40
2023-05-09T00:13:16.475Z,13.30
2023-05-09T00:15:47.887Z,13.30
2023-05-09T00:18:18.141Z,13.40
2023-05-09T00:20:46.380Z,13.40
2023-05-09T00:23:16.714Z,13.40
2023-05-09T00:25:45.284Z,13.40
2023-05-09T00:28:13.549Z,13.40
2023-05-09T00:30:41.688Z,13.40
2023-05-09T00:33:25.679Z,13.50
2023-05-09T00:35:53.997Z,13.50
2023-05-09T00:38:25.048Z,13.50
2023-05-09T00:40:53.343Z,13.50
2023-05-09T00:43:22.223Z,13.50
2023-05-09T00:45:51.312Z,13.40
2023-05-09T00:48:21.047Z,13.20
2023-05-09T00:50:52.904Z,13.10
2023-05-09T00:53:21.264Z,13.00
2023-05-09T00:55:51.197Z,12.90
2023-05-09T00:58:19.924Z,12.80
2023-05-09T01:00:48.727Z,12.80
2023-05-09T01:03:17.769Z,12.70
2023-05-09T01:05:58.007Z,12.80
2023-05-09T01:08:44.377Z,12.70
2023-05-09T01:11:19.311Z,12.70
2023-05-09T01:13:57.719Z,12.80
2023-05-09T01:16:33.700Z,12.80
2023-05-09T01:19:09.465Z,12.80
2023-05-09T01:21:41.591Z,12.80
2023-05-09T01:24:50.149Z,12.80
2023-05-09T01:27:38.651Z,12.90
2023-05-09T01:30:11.729Z,12.90
2023-05-09T01:32:44.198Z,13.00
2023-05-09T01:35:15.997Z,13.00
2023-05-09T01:37:48.205Z,13.10
2023-05-09T01:40:20.180Z,13.20
2023-05-09T01:42:52.404Z,13.20
2023-05-09T01:45:23.174Z,13.20
2023-05-09T01:47:52.086Z,13.20
2023-05-09T01:50:21.262Z,13.30
2023-05-09T01:52:50.919Z,13.30
2023-05-09T01:55:21.186Z,13.30
2023-05-09T01:57:51.882Z,13.20
2023-05-09T02:00:22.522Z,13.20
2023-05-09T02:02:51.354Z,13.10
2023-05-09T02:05:20.545Z,13.10
2023-05-09T02:07:49.775Z,13.00
2023-05-09T02:10:18.529Z,13.10
2023-05-09T02:12:46.775Z,13.00
2023-05-09T02:15:15.524Z,13.00
2023-05-09T02:17:45.700Z,13.10
2023-05-09T02:20:14.642Z,13.20
2023-05-09T02:22:44.680Z,13.20
2023-05-09T02:25:15.863Z,13.30
2023-05-09T02:27:46.682Z,13.30
2023-05-09T02:30:20.675Z,13.30
2023-05-09T02:32:51.903Z,13.40
2023-05-09T02:35:21.700Z,13.40
2023-05-09T02:37:50.558Z,13.40
2023-05-09T02:40:20.485Z,13.50
2023-05-09T02:42:50.838Z,13.50
2023-05-09T02:45:21.779Z,13.50
2023-05-09T02:47:51.444Z,13.40
2023-05-09T02:50:19.976Z,13.40
2023-05-09T02:52:48.166Z,13.40
2023-05-09T02:55:16.492Z,13.30
2023-05-09T02:57:44.999Z,13.30
2023-05-09T03:00:14.425Z,13.20
2023-05-09T03:02:43.148Z,13.20
2023-05-09T03:05:13.069Z,13.10
2023-05-09T03:07:41.772Z,13.10
2023-05-09T03:10:12.264Z,13.10
2023-05-09T03:12:40.464Z,13.00
2023-05-09T03:15:09.787Z,13.00
2023-05-09T03:17:38.290Z,13.00
2023-05-09T03:20:10.584Z,12.80
2023-05-09T03:22:40.297Z,12.80
2023-05-09T03:25:09.610Z,12.70
2023-05-09T03:27:37.864Z,12.70
2023-05-09T03:30:07.073Z,12.60
2023-05-09T03:32:35.273Z,12.60
2023-05-09T03:35:03.922Z,12.60
2023-05-09T03:37:32.241Z,12.50
2023-05-09T03:40:01.961Z,12.50
2023-05-09T03:42:31.072Z,12.50
2023-05-09T03:45:01.344Z,12.50
2023-05-09T03:47:32.220Z,12.50
2023-05-09T03:50:06.612Z,12.50
2023-05-09T03:52:37.429Z,12.60
2023-05-09T03:55:10.049Z,12.60
2023-05-09T03:57:38.609Z,12.70
2023-05-09T04:00:13.105Z,12.70
2023-05-09T04:02:47.116Z,12.70
2023-05-09T04:05:15.515Z,12.70
2023-05-09T04:07:43.969Z,12.70
2023-05-09T04:10:13.905Z,12.80
2023-05-09T04:12:42.381Z,12.90
2023-05-09T04:15:12.294Z,13.00
2023-05-09T04:17:40.674Z,13.00
2023-05-09T04:20:11.739Z,13.00
2023-05-09T04:22:39.788Z,13.00
2023-05-09T04:25:12.512Z,13.00
2023-05-09T04:27:42.091Z,12.90
2023-05-09T04:30:13.202Z,12.90
2023-05-09T04:32:45.619Z,12.80
2023-05-09T04:35:14.268Z,12.70
2023-05-09T04:37:42.863Z,12.70
2023-05-09T04:40:14.656Z,12.70
2023-05-09T04:42:44.011Z,12.70
2023-05-09T04:45:13.057Z,12.70
2023-05-09T04:47:41.410Z,12.80
2023-05-09T04:50:10.381Z,12.90
2023-05-09T04:52:41.097Z,13.10
2023-05-09T04:55:11.624Z,13.20
2023-05-09T04:57:39.792Z,13.30
2023-05-09T05:00:11.489Z,13.40
2023-05-09T05:02:39.860Z,13.50
2023-05-09T05:05:17.632Z,13.60
2023-05-09T05:07:45.853Z,13.60
2023-05-09T05:10:14.512Z,13.80
2023-05-09T05:12:42.490Z,14.00
2023-05-09T05:15:13.702Z,14.00
2023-05-09T05:17:43.186Z,14.10
2023-05-09T05:20:11.686Z,14.10
2023-05-09T05:22:39.775Z,14.00
2023-05-09T05:25:09.058Z,13.90
2023-05-09T05:27:37.120Z,14.00
2023-05-09T05:30:05.780Z,14.20
2023-05-09T05:32:36.187Z,14.60
2023-05-09T05:35:04.990Z,14.70
2023-05-09T05:37:33.034Z,14.50
2023-05-09T05:40:01.209Z,14.20
2023-05-09T05:42:29.190Z,14.20
2023-05-09T05:44:57.199Z,14.20
2023-05-09T05:47:25.266Z,14.10
2023-05-09T05:49:55.045Z,14.20
2023-05-09T05:52:23.043Z,14.50
2023-05-09T05:54:51.185Z,14.70
2023-05-09T05:57:19.121Z,14.90
2023-05-09T05:59:48.832Z,15.20
2023-05-09T06:02:17.116Z,15.40
2023-05-09T06:04:45.304Z,15.80
2023-05-09T06:07:15.020Z,16.20
2023-05-09T06:09:43.055Z,16.80
2023-05-09T06:12:11.894Z,17.90
2023-05-09T06:14:39.899Z,18.10
2023-05-09T06:17:08.006Z,18.50
2023-05-09T06:19:37.149Z,20.30
2023-05-09T06:22:05.140Z,22.00
2023-05-09T06:24:36.177Z,23.20
2023-05-09T06:27:05.309Z,23.40
2023-05-09T06:29:33.379Z,24.10
2023-05-09T06:32:02.776Z,23.80
2023-05-09T06:34:30.762Z,24.10
2023-05-09T06:36:58.693Z,25.20
2023-05-09T06:39:26.746Z,25.70
2023-05-09T06:41:56.022Z,25.00
2023-05-09T06:44:23.950Z,24.20
2023-05-09T06:46:52.100Z,24.20
2023-05-09T06:49:20.084Z,23.80
2023-05-09T06:51:48.230Z,24.10
2023-05-09T06:54:17.193Z,24.70
2023-05-09T06:56:45.252Z,25.10
2023-05-09T06:59:16.561Z,25.00
2023-05-09T07:01:44.636Z,24.90
2023-05-09T07:04:12.719Z,24.60
2023-05-09T07:06:40.806Z,24.00
2023-05-09T07:09:09.009Z,23.50
2023-05-09T07:11:37.414Z,22.80
2023-05-09T07:14:05.454Z,22.60
2023-05-09T07:16:37.562Z,23.10
2023-05-09T07:19:06.244Z,22.80
2023-05-09T07:21:34.955Z,22.80
2023-05-09T07:24:03.588Z,22.50
2023-05-09T07:26:31.661Z,23.30
2023-05-09T07:28:59.725Z,23.60
2023-05-09T07:31:27.755Z,24.00
2023-05-09T07:33:57.188Z,24.20
2023-05-09T07:36:25.341Z,23.50
2023-05-09T07:38:54.600Z,23.30
2023-05-09T07:41:25.051Z,23.10
2023-05-09T07:43:53.184Z,23.30
2023-05-09T07:46:21.353Z,22.80
2023-05-09T07:48:51.072Z,22.50
2023-05-09T07:51:20.744Z,22.40
2023-05-09T07:53:48.962Z,22.00
2023-05-09T07:56:16.970Z,22.30
2023-05-09T07:58:44.942Z,23.00
2023-05-09T08:01:12.931Z,23.50
2023-05-09T08:03:41.526Z,23.90
2023-05-09T08:06:10.795Z,24.30
2023-05-09T08:08:40.150Z,24.30
2023-05-09T08:11:08.190Z,24.10
2023-05-09T08:13:36.253Z,23.80
2023-05-09T08:16:11.134Z,23.00
2023-05-09T08:18:39.251Z,22.50
2023-05-09T08:21:07.373Z,22.30
2023-05-09T08:23:35.605Z,22.50
2023-05-09T08:26:05.163Z,22.20
2023-05-09T08:28:33.170Z,21.80
2023-05-09T08:31:01.258Z,21.50
2023-05-09T08:33:29.265Z,21.40
2023-05-09T08:35:57.413Z,21.20
2023-05-09T08:38:25.431Z,21.00
2023-05-09T08:40:53.530Z,21.20
2023-05-09T08:43:25.103Z,21.20
2023-05-09T08:45:58.065Z,21.20
2023-05-09T08:48:26.820Z,20.90
2023-05-09T08:50:55.950Z,21.00
2023-05-09T08:53:24.388Z,21.10
2023-05-09T08:55:53.726Z,21.10
2023-05-09T08:58:23.612Z,21.10
2023-05-09T09:00:51.793Z,20.90
2023-05-09T09:03:19.930Z,20.70
2023-05-09T09:05:49.373Z,20.60
2023-05-09T09:08:19.069Z,20.70
2023-05-09T09:10:48.367Z,20.80
2023-05-09T09:13:19.712Z,21.10
2023-05-09T09:15:49.856Z,21.60
2023-05-09T09:18:23.098Z,21.30
2023-05-09T09:20:57.974Z,21.30
2023-05-09T09:23:27.746Z,21.20
2023-05-09T09:26:00.250Z,21.10
2023-05-09T09:28:28.472Z,21.50
2023-05-09T09:30:57.909Z,21.40
2023-05-09T09:33:27.590Z,21.40
2023-05-09T09:35:57.329Z,21.50
2023-05-09T09:38:26.791Z,21.30
2023-05-09T09:40:56.054Z,21.90
2023-05-09T09:43:28.940Z,21.40
2023-05-09T09:45:58.773Z,21.80
2023-05-09T09:48:27.098Z,21.70
2023-05-09T09:50:56.683Z,21.40
2023-05-09T09:53:30.146Z,21.30
2023-05-09T09:55:58.598Z,20.70
2023-05-09T09:58:27.017Z,20.70
2023-05-09T10:01:10.220Z,20.90
2023-05-09T10:03:39.265Z,20.50
2023-05-09T10:06:11.607Z,20.90
2023-05-09T10:08:39.596Z,20.90
2023-05-09T10:11:08.036Z,20.60
2023-05-09T10:13:37.384Z,20.80
2023-05-09T10:16:07.025Z,20.90
2023-05-09T10:18:37.392Z,21.10
2023-05-09T10:21:09.005Z,21.20
2023-05-09T10:23:39.497Z,21.10
2023-05-09T10:26:21.000Z,21.40
2023-05-09T10:28:50.860Z,21.20
2023-05-09T10:31:26.832Z,20.80
2023-05-09T10:33:57.682Z,20.90
2023-05-09T10:36:25.927Z,21.20
2023-05-09T10:38:56.318Z,21.20
2023-05-09T10:41:25.635Z,21.10
2023-05-09T10:43:56.517Z,20.60
2023-05-09T10:46:25.335Z,20.90
2023-05-09T10:48:53.536Z,21.20
2023-05-09T10:51:24.195Z,21.50
2023-05-09T10:53:52.453Z,21.40
2023-05-09T10:56:29.835Z,21.40
2023-05-09T10:58:58.035Z,21.50
2023-05-09T11:01:36.057Z,21.20
2023-05-09T11:04:11.393Z,21.10
2023-05-09T11:06:49.957Z,21.20
2023-05-09T11:09:27.214Z,21.10
2023-05-09T11:11:56.917Z,21.50
2023-05-09T11:14:39.114Z,21.80
2023-05-09T11:17:10.929Z,22.10
2023-05-09T11:19:54.944Z,22.10
2023-05-09T11:22:26.319Z,21.90
2023-05-09T11:25:01.554Z,22.40
2023-05-09T11:27:30.540Z,22.20
2023-05-09T11:29:59.912Z,22.10
2023-05-09T11:32:31.918Z,21.90
2023-05-09T11:35:10.537Z,21.60
2023-05-09T11:37:48.219Z,22.00
2023-05-09T11:40:18.309Z,22.20
2023-05-09T11:42:47.822Z,22.40
2023-05-09T11:45:16.281Z,22.30
2023-05-09T11:47:44.486Z,22.30
2023-05-09T11:50:14.339Z,21.90
2023-05-09T11:52:43.874Z,21.70
2023-05-09T11:55:14.578Z,21.90
2023-05-09T11:57:44.172Z,22.00
2023-05-09T12:00:13.215Z,22.10
2023-05-09T12:02:41.511Z,22.20
2023-05-09T12:05:10.990Z,22.10
2023-05-09T12:07:39.888Z,22.50
2023-05-09T12:10:11.231Z,22.50
2023-05-09T12:12:44.075Z,22.60
2023-05-09T12:15:13.981Z,22.80
2023-05-09T12:17:43.505Z,23.20
2023-05-09T12:20:12.388Z,23.20
2023-05-09T12:22:44.124Z,23.10
2023-05-09T12:25:14.288Z,22.90
2023-05-09T12:27:43.181Z,23.10
2023-05-09T12:30:15.956Z,23.20
2023-05-09T12:32:44.404Z,23.00
2023-05-09T12:35:12.622Z,23.50
2023-05-09T12:37:40.666Z,23.40
2023-05-09T12:40:12.802Z,23.30
2023-05-09T12:42:46.265Z,23.30
2023-05-09T12:45:15.698Z,23.40
2023-05-09T12:47:45.447Z,23.40
2023-05-09T12:50:14.030Z,23.50
2023-05-09T12:53:02.095Z,23.30
2023-05-09T12:55:32.844Z,23.20
2023-05-09T12:58:04.223Z,23.10
2023-05-09T13:00:43.398Z,23.10
2023-05-09T13:03:22.725Z,23.10
2023-05-09T13:05:58.593Z,22.90
2023-05-09T13:08:26.915Z,23.20
2023-05-09T13:11:04.006Z,23.20
2023-05-09T13:13:45.117Z,23.30
2023-05-09T13:16:15.719Z,22.90
2023-05-09T13:18:45.482Z,22.70
2023-05-09T13:21:13.487Z,22.80
2023-05-09T13:23:42.192Z,23.10
2023-05-09T13:26:10.249Z,23.20
2023-05-09T13:28:38.174Z,23.30
2023-05-09T13:31:08.176Z,23.40
2023-05-09T13:33:36.258Z,23.40
2023-05-09T13:36:04.691Z,23.60
2023-05-09T13:38:36.648Z,23.40
2023-05-09T13:41:04.722Z,23.40
2023-05-09T13:43:32.755Z,23.20
2023-05-09T13:46:00.747Z,23.20
2023-05-09T13:48:30.397Z,23.20
2023-05-09T13:50:59.852Z,23.30
2023-05-09T13:53:27.946Z,23.40
2023-05-09T13:55:56.097Z,23.50
2023-05-09T13:58:24.109Z,23.50
2023-05-09T14:00:52.187Z,23.40
2023-05-09T14:03:20.168Z,23.00
2023-05-09T14:05:49.648Z,23.00
2023-05-09T14:08:17.929Z,22.80
2023-05-09T14:10:45.908Z,22.70
2023-05-09T14:13:15.672Z,22.60
2023-05-09T14:15:43.908Z,22.40
2023-05-09T14:18:17.723Z,22.30
2023-05-09T14:20:47.390Z,22.20
2023-05-09T14:23:17.073Z,22.10
2023-05-09T14:25:45.262Z,22.20
2023-05-09T14:28:13.408Z,22.50
2023-05-09T14:30:41.852Z,22.60
2023-05-09T14:33:09.894Z,22.70
2023-05-09T14:35:41.106Z,22.80
2023-05-09T14:38:09.559Z,22.80
2023-05-09T14:40:38.990Z,22.50
2023-05-09T14:43:07.358Z,22.90
2023-05-09T14:45:35.329Z,23.10
2023-05-09T14:48:04.232Z,22.90
2023-05-09T14:50:33.470Z,22.60
2023-05-09T14:53:02.066Z,22.50
2023-05-09T14:55:31.172Z,22.50
2023-05-09T14:58:00.604Z,22.40
2023-05-09T15:00:29.274Z,22.10
2023-05-09T15:02:57.992Z,21.90
2023-05-09T15:05:26.153Z,21.90
2023-05-09T15:07:54.464Z,21.60
2023-05-09T15:10:22.660Z,21.50
2023-05-09T15:12:50.747Z,21.30
2023-05-09T15:15:21.590Z,21.20
2023-05-09T15:17:49.905Z,21.30
2023-05-09T15:20:18.616Z,21.20
2023-05-09T15:22:47.625Z,21.20
2023-05-09T15:25:15.754Z,21.10
2023-05-09T15:27:43.865Z,21.20
2023-05-09T15:30:12.794Z,21.30
2023-05-09T15:32:42.303Z,21.20
2023-05-09T15:35:10.642Z,21.30
2023-05-09T15:37:38.621Z,21.30
2023-05-09T15:40:07.952Z,21.30
2023-05-09T15:42:36.063Z,21.20
2023-05-09T15:45:04.346Z,21.30
2023-05-09T15:47:32.412Z,21.20
2023-05-09T15:50:01.855Z,21.10
2023-05-09T15:52:29.885Z,20.90
2023-05-09T15:54:58.111Z,20.70
2023-05-09T15:57:26.369Z,20.50
2023-05-09T15:59:56.125Z,20.40
2023-05-09T16:02:24.761Z,20.40
2023-05-09T16:04:52.840Z,20.20
2023-05-09T16:07:22.354Z,20.10
2023-05-09T16:09:50.443Z,20.20
2023-05-09T16:12:18.436Z,20.20
2023-05-09T16:14:46.426Z,20.20
2023-05-09T16:17:14.385Z,20.30
2023-05-09T16:19:42.461Z,20.30
2023-05-09T16:22:10.778Z,20.30
2023-05-09T16:24:40.049Z,20.00
2023-05-09T16:27:08.249Z,19.80
2023-05-09T16:29:36.454Z,19.80
2023-05-09T16:32:04.486Z,19.90
2023-05-09T16:34:32.890Z,19.90
2023-05-09T16:37:00.915Z,19.80
2023-05-09T16:39:29.006Z,19.80
2023-05-09T16:41:59.633Z,19.70
2023-05-09T16:44:27.910Z,19.60
2023-05-09T16:46:55.926Z,19.60
2023-05-09T16:49:24.051Z,19.50
2023-05-09T16:51:52.017Z,19.40
2023-05-09T16:54:19.982Z,19.10
2023-05-09T16:56:47.937Z,18.50
2023-05-09T16:59:18.717Z,17.60
2023-05-09T17:01:47.574Z,15.60
2023-05-09T17:04:18.723Z,14.70
2023-05-09T17:06:46.752Z,14.40
2023-05-09T17:09:14.710Z,14.40
2023-05-09T17:11:42.759Z,14.40
2023-05-09T17:14:11.273Z,14.70
2023-05-09T17:16:41.223Z,14.70
2023-05-09T17:19:09.244Z,14.90
2023-05-09T17:21:38.191Z,14.90
2023-05-09T17:24:06.795Z,14.90
2023-05-09T17:26:35.014Z,15.00
2023-05-09T17:29:03.688Z,15.00
2023-05-09T17:31:32.142Z,14.90
2023-05-09T17:34:01.524Z,14.70
2023-05-09T17:36:29.827Z,14.70
2023-05-09T17:38:57.864Z,14.80
2023-05-09T17:41:25.846Z,14.80
2023-05-09T17:43:56.383Z,14.80
2023-05-09T17:46:24.545Z,15.00
2023-05-09T17:48:52.662Z,14.90
2023-05-09T17:51:22.241Z,14.80
2023-05-09T17:53:50.306Z,14.80
2023-05-09T17:56:18.307Z,14.80
2023-05-09T17:58:46.366Z,14.90
2023-05-09T18:01:15.633Z,14.90
2023-05-09T18:03:43.807Z,14.90
2023-05-09T18:06:11.940Z,14.90
2023-05-09T18:08:41.459Z,14.90
2023-05-09T18:11:09.470Z,14.90
2023-05-09T18:13:37.543Z,14.90
2023-05-09T18:16:06.054Z,14.90
2023-05-09T18:18:35.572Z,14.90
2023-05-09T18:21:04.902Z,15.00
2023-05-09T18:23:33.245Z,15.00
2023-05-09T18:26:02.783Z,14.90
2023-05-09T18:28:31.863Z,14.80
2023-05-09T18:31:01.370Z,14.80
2023-05-09T18:33:30.187Z,14.70
2023-05-09T18:35:58.170Z,14.60
2023-05-09T18:38:26.283Z,14.50
2023-05-09T18:40:54.284Z,14.40
2023-05-09T18:43:23.628Z,14.40
2023-05-09T18:45:51.987Z,14.30
2023-05-09T18:48:20.101Z,14.30
2023-05-09T18:50:48.873Z,14.30
2023-05-09T18:53:16.831Z,14.30
2023-05-09T18:55:44.915Z,14.30
2023-05-09T18:58:13.760Z,14.30
2023-05-09T19:00:44.544Z,14.20
2023-05-09T19:03:12.549Z,14.20
2023-05-09T19:05:40.585Z,14.10
2023-05-09T19:08:08.579Z,14.10
2023-05-09T19:10:38.006Z,14.10
2023-05-09T19:13:06.148Z,14.10
2023-05-09T19:15:34.791Z,14.10
2023-05-09T19:18:04.785Z,14.20
2023-05-09T19:20:33.042Z,14.10
2023-05-09T19:23:01.690Z,14.10
2023-05-09T19:25:30.475Z,14.00
2023-05-09T19:27:58.533Z,13.90
2023-05-09T19:30:26.607Z,13.80
2023-05-09T19:32:54.892Z,13.80
2023-05-09T19:35:24.645Z,13.90
2023-05-09T19:37:52.597Z,13.80
2023-05-09T19:40:20.829Z,13.70
2023-05-09T19:42:51.787Z,13.70
2023-05-09T19:45:20.181Z,13.60
2023-05-09T19:47:48.528Z,13.60
2023-05-09T19:50:16.901Z,13.60
2023-05-09T19:52:46.614Z,13.50
2023-05-09T19:55:14.986Z,13.60
2023-05-09T19:57:42.993Z,13.50
2023-05-09T20:00:12.011Z,13.50
2023-05-09T20:02:41.000Z,13.40
2023-05-09T20:05:09.884Z,13.50
2023-05-09T20:07:38.081Z,13.50
2023-05-09T20:10:08.381Z,13.40
2023-05-09T20:12:36.417Z,13.40
2023-05-09T20:15:05.538Z,13.40
2023-05-09T20:17:33.469Z,13.30
2023-05-09T20:20:01.606Z,13.30
2023-05-09T20:22:29.652Z,13.40
2023-05-09T20:24:57.765Z,13.30
2023-05-09T20:27:27.381Z,13.30
2023-05-09T20:29:55.367Z,13.30
2023-05-09T20:32:23.810Z,13.20
2023-05-09T20:34:51.828Z,13.20
2023-05-09T20:37:19.892Z,13.10
2023-05-09T20:39:47.929Z,13.10
2023-05-09T20:42:15.991Z,13.10
2023-05-09T20:44:45.352Z,13.10
2023-05-09T20:47:13.383Z,13.00
2023-05-09T20:49:41.413Z,13.00
2023-05-09T20:52:09.395Z,13.00
2023-05-09T20:54:37.653Z,13.00
2023-05-09T20:57:05.684Z,13.10
2023-05-09T20:59:33.612Z,13.10
2023-05-09T21:02:03.046Z,13.10
2023-05-09T21:04:31.187Z,13.10
2023-05-09T21:06:59.872Z,13.00
2023-05-09T21:09:27.914Z,13.10
2023-05-09T21:11:55.874Z,13.00
2023-05-09T21:14:23.896Z,13.00
2023-05-09T21:16:54.851Z,13.00
2023-05-09T21:19:24.340Z,13.00
2023-05-09T21:21:52.311Z,13.00
2023-05-09T21:24:20.346Z,13.00
2023-05-09T21:26:48.292Z,13.00
2023-05-09T21:29:16.351Z,12.90
2023-05-09T21:31:44.414Z,12.90
2023-05-09T21:34:12.424Z,12.90
2023-05-09T21:36:41.997Z,12.80
2023-05-09T21:39:10.394Z,12.80
2023-05-09T21:41:39.512Z,12.80
2023-05-09T21:44:08.391Z,12.90
2023-05-09T21:46:36.688Z,12.90
2023-05-09T21:49:05.078Z,13.00
2023-05-09T21:51:33.514Z,12.90
2023-05-09T21:54:02.890Z,12.90
2023-05-09T21:56:31.015Z,12.80
2023-05-09T21:58:58.906Z,12.90
2023-05-09T22:01:26.936Z,12.80
2023-05-09T22:04:01.605Z,12.80
2023-05-09T22:06:29.682Z,12.90
2023-05-09T22:08:57.599Z,12.80
2023-05-09T22:11:26.950Z,12.80
2023-05-09T22:13:55.346Z,12.80
2023-05-09T22:16:23.374Z,12.70
2023-05-09T22:18:51.430Z,12.70
2023-05-09T22:21:25.195Z,12.70
2023-05-09T22:23:53.288Z,12.70
2023-05-09T22:26:21.288Z,12.70
2023-05-09T22:28:51.016Z,12.70
2023-05-09T22:31:19.071Z,12.80
2023-05-09T22:33:47.131Z,12.80
2023-05-09T22:36:17.541Z,12.70
2023-05-09T22:38:45.568Z,12.70
2023-05-09T22:41:13.572Z,12.70
2023-05-09T22:43:41.526Z,12.60
2023-05-09T22:46:10.910Z,12.60
2023-05-09T22:48:38.817Z,12.70
2023-05-09T22:51:06.793Z,12.70
2023-05-09T22:53:34.734Z,12.70
2023-05-09T22:56:02.757Z,12.70
2023-05-09T22:58:30.756Z,12.70
2023-05-09T23:00:58.675Z,12.80
2023-05-09T23:03:28.163Z,12.80
2023-05-09T23:05:56.139Z,12.80
2023-05-09T23:08:24.184Z,12.80
2023-05-09T23:10:52.498Z,12.80
2023-05-09T23:13:21.111Z,12.80
2023-05-09T23:15:49.216Z,12.80
2023-05-09T23:18:17.180Z,12.80
2023-05-09T23:20:47.325Z,12.80
2023-05-09T23:23:15.440Z,12.70
2023-05-09T23:25:44.353Z,12.70
2023-05-09T23:28:12.275Z,12.70
2023-05-09T23:30:40.296Z,12.70
2023-05-09T23:33:08.216Z,12.70
2023-05-09T23:35:36.194Z,12.60
2023-05-09T23:38:05.440Z,12.60
2023-05-09T23:40:33.460Z,12.60
2023-05-09T23:43:01.369Z,12.60
2023-05-09T23:45:29.390Z,12.50
2023-05-09T23:47:58.130Z,12.50
2023-05-09T23:50:26.139Z,12.50
2023-05-09T23:52:54.083Z,12.50
2023-05-09T23:55:23.374Z,12.50
2023-05-09T23:57:51.375Z,12.50
